createdAt,value
2023-01-03T00:01:17.180Z,3.08
2023-01-03T00:03:45.177Z,2.38
2023-01-03T00:06:17.472Z,2.90
2023-01-03T00:08:45.530Z,2.85
2023-01-03T00:11:14.015Z,3.38
2023-01-03T00:13:41.118Z,2.88
2023-01-03T00:16:17.908Z,3.15
2023-01-03T00:21:13.917Z,4.22
2023-01-03T00:23:41.730Z,3.22
2023-01-03T00:26:11.066Z,3.53
2023-01-03T00:28:39.413Z,3.00
2023-01-03T00:31:08.527Z,2.95
2023-01-03T00:33:38.674Z,3.22
2023-01-03T00:36:09.213Z,3.83
2023-01-03T00:38:37.979Z,2.92
2023-01-03T00:41:06.782Z,3.42
2023-01-03T00:43:35.235Z,2.72
2023-01-03T00:46:03.548Z,2.95
2023-01-03T00:48:31.733Z,3.75
2023-01-03T00:51:06.732Z,3.55
2023-01-03T00:53:34.812Z,2.90
2023-01-03T00:56:06.230Z,3.85
2023-01-03T00:58:34.799Z,2.80
2023-01-03T01:01:06.481Z,2.90
2023-01-03T01:03:34.633Z,3.15
2023-01-03T01:06:12.133Z,3.20
2023-01-03T01:08:39.943Z,3.88
2023-01-03T01:11:08.195Z,2.95
2023-01-03T01:13:36.700Z,2.63
2023-01-03T01:16:06.179Z,4.18
2023-01-03T01:18:34.292Z,3.58
2023-01-03T01:21:05.800Z,2.97
2023-01-03T01:23:33.607Z,3.70
2023-01-03T01:26:01.695Z,3.30
2023-01-03T01:28:29.640Z,3.30
2023-01-03T01:30:59.600Z,3.45
2023-01-03T01:33:27.580Z,3.20
2023-01-03T01:35:55.711Z,3.35
2023-01-03T01:38:24.942Z,3.30
2023-01-03T01:40:52.742Z,3.20
2023-01-03T01:43:41.119Z,2.92
2023-01-03T01:46:17.403Z,3.88
2023-01-03T01:48:45.320Z,3.42
2023-01-03T01:51:14.201Z,3.40
2023-01-03T01:53:44.181Z,3.85
2023-01-03T01:56:18.403Z,3.67
2023-01-03T01:58:49.500Z,3.13
2023-01-03T02:01:20.388Z,3.45
2023-01-03T02:03:55.461Z,4.15
2023-01-03T02:06:25.482Z,3.35
2023-01-03T02:08:54.623Z,3.97
2023-01-03T02:11:34.793Z,3.40
2023-01-03T02:14:15.527Z,3.40
2023-01-03T02:17:01.519Z,3.90
2023-01-03T02:19:58.332Z,3.25
2023-01-03T02:22:48.044Z,4.63
2023-01-03T02:26:06.478Z,4.18
2023-01-03T02:29:03.139Z,3.40
2023-01-03T02:31:39.462Z,3.63
2023-01-03T02:34:21.384Z,3.50
2023-01-03T02:37:00.188Z,3.58
2023-01-03T02:39:32.789Z,3.60
2023-01-03T02:42:22.706Z,3.50
2023-01-03T02:44:59.322Z,3.50
2023-01-03T02:47:38.315Z,3.60
2023-01-03T02:50:10.652Z,3.33
2023-01-03T02:52:41.108Z,3.45
2023-01-03T02:55:14.633Z,4.13
2023-01-03T02:57:47.619Z,3.47
2023-01-03T03:00:19.351Z,4.30
2023-01-03T03:02:52.115Z,3.55
2023-01-03T03:05:25.928Z,3.50
2023-01-03T03:07:54.006Z,3.90
2023-01-03T03:10:40.637Z,3.13
2023-01-03T03:13:17.023Z,3.38
2023-01-03T03:15:55.984Z,3.63
2023-01-03T03:18:32.482Z,3.40
2023-01-03T03:21:20.207Z,3.97
2023-01-03T03:24:07.597Z,4.03
2023-01-03T03:29:10.769Z,4.20
2023-01-03T03:31:42.405Z,3.88
2023-01-03T03:34:14.288Z,3.72
2023-01-03T03:36:49.526Z,4.05
2023-01-03T03:39:35.890Z,3.65
2023-01-03T03:42:32.962Z,3.67
2023-01-03T03:45:10.482Z,3.70
2023-01-03T03:47:45.805Z,3.58
2023-01-03T03:50:22.377Z,4.25
2023-01-03T03:52:56.067Z,3.45
2023-01-03T03:55:26.953Z,3.72
2023-01-03T03:58:00.670Z,3.78
2023-01-03T04:00:33.972Z,4.20
2023-01-03T04:03:03.783Z,3.95
2023-01-03T04:05:37.269Z,4.20
2023-01-03T04:08:05.333Z,4.22
2023-01-03T04:10:37.738Z,3.88
2023-01-03T04:13:06.522Z,4.68
2023-01-03T04:15:34.320Z,4.15
2023-01-03T04:18:02.627Z,4.50
2023-01-03T04:20:30.825Z,4.40
2023-01-03T04:22:59.968Z,4.00
2023-01-03T04:25:27.883Z,4.15
2023-01-03T04:27:55.604Z,4.10
2023-01-03T04:30:23.581Z,4.28
2023-01-03T04:32:51.355Z,4.05
2023-01-03T04:35:19.152Z,3.88
2023-01-03T04:37:47.043Z,4.05
2023-01-03T04:40:16.372Z,4.80
2023-01-03T04:43:02.014Z,4.63
2023-01-03T04:45:29.861Z,4.30
2023-01-03T04:47:57.655Z,4.13
2023-01-03T04:50:25.628Z,3.90
2023-01-03T04:52:53.471Z,3.92
2023-01-03T04:55:22.624Z,3.50
2023-01-03T04:57:50.533Z,3.60
2023-01-03T05:00:18.689Z,3.42
2023-01-03T05:02:46.678Z,3.65
2023-01-03T05:05:14.509Z,3.35
2023-01-03T05:07:42.284Z,3.40
2023-01-03T05:10:10.382Z,4.00
2023-01-03T05:12:39.617Z,4.68
2023-01-03T05:15:08.680Z,3.30
2023-01-03T05:17:36.488Z,4.05
2023-01-03T05:20:22.262Z,3.20
2023-01-03T05:23:07.405Z,3.13
2023-01-03T05:25:53.180Z,3.30
2023-01-03T05:28:25.039Z,3.40
2023-01-03T05:30:52.818Z,4.00
2023-01-03T05:33:20.603Z,3.45
2023-01-03T05:35:49.019Z,3.00
2023-01-03T05:38:16.809Z,3.72
2023-01-03T05:40:44.784Z,3.85
2023-01-03T05:43:12.911Z,3.38
2023-01-03T05:45:42.424Z,3.33
2023-01-03T05:48:10.799Z,3.30
2023-01-03T05:50:39.176Z,3.65
2023-01-03T05:53:06.954Z,3.67
2023-01-03T05:55:37.016Z,3.70
2023-01-03T05:58:05.571Z,3.63
2023-01-03T06:00:33.399Z,3.25
2023-01-03T06:03:02.675Z,4.15
2023-01-03T06:05:30.666Z,3.63
2023-01-03T06:08:00.985Z,3.83
2023-01-03T06:10:28.882Z,3.40
2023-01-03T06:12:57.141Z,3.30
2023-01-03T06:15:25.041Z,3.38
2023-01-03T06:17:54.966Z,3.42
2023-01-03T06:20:24.711Z,3.35
2023-01-03T06:22:54.207Z,3.03
2023-01-03T06:25:22.807Z,3.22
2023-01-03T06:27:50.612Z,2.80
2023-01-03T06:30:18.918Z,3.10
2023-01-03T06:32:46.924Z,2.85
2023-01-03T06:35:14.735Z,3.38
2023-01-03T06:37:44.075Z,2.83
2023-01-03T06:40:12.753Z,3.10
2023-01-03T06:42:42.461Z,3.15
2023-01-03T06:45:30.594Z,3.00
2023-01-03T06:48:19.056Z,3.05
2023-01-03T06:51:04.397Z,2.92
2023-01-03T06:53:36.403Z,2.55
2023-01-03T06:56:04.889Z,2.85
2023-01-03T06:58:32.824Z,3.25
2023-01-03T07:01:03.513Z,3.60
2023-01-03T07:03:31.388Z,3.30
2023-01-03T07:05:59.232Z,3.38
2023-01-03T07:08:27.084Z,2.92
2023-01-03T07:10:57.035Z,3.13
2023-01-03T07:13:42.425Z,3.42
2023-01-03T07:16:15.272Z,3.58
2023-01-03T07:18:44.991Z,3.47
2023-01-03T07:21:14.930Z,2.75
2023-01-03T07:23:43.067Z,3.13
2023-01-03T07:26:12.650Z,3.22
2023-01-03T07:28:40.423Z,3.10
2023-01-03T07:31:08.826Z,3.33
2023-01-03T07:33:39.184Z,3.10
2023-01-03T07:36:12.079Z,3.35
2023-01-03T07:38:42.031Z,3.20
2023-01-03T07:41:10.696Z,2.90
2023-01-03T07:43:41.774Z,3.35
2023-01-03T07:46:11.737Z,3.28
2023-01-03T07:48:40.248Z,3.40
2023-01-03T07:51:09.531Z,3.40
2023-01-03T07:53:37.832Z,3.40
2023-01-03T07:56:12.620Z,3.65
2023-01-03T07:58:44.318Z,3.33
2023-01-03T08:01:14.365Z,3.28
2023-01-03T08:03:43.122Z,3.38
2023-01-03T08:06:13.475Z,3.92
2023-01-03T08:08:41.906Z,4.03
2023-01-03T08:11:30.369Z,3.30
2023-01-03T08:14:00.403Z,3.38
2023-01-03T08:16:28.445Z,3.30
2023-01-03T08:18:56.295Z,4.10
2023-01-03T08:21:24.052Z,3.90
2023-01-03T08:23:51.828Z,3.90
2023-01-03T08:26:21.088Z,3.45
2023-01-03T08:28:48.854Z,3.35
2023-01-03T08:31:20.674Z,3.65
2023-01-03T08:33:51.432Z,3.70
2023-01-03T08:36:20.915Z,4.30
2023-01-03T08:38:51.713Z,3.95
2023-01-03T08:41:23.919Z,3.95
2023-01-03T08:43:51.850Z,3.75
2023-01-03T08:46:21.670Z,4.45
2023-01-03T08:48:49.683Z,3.75
2023-01-03T08:51:17.587Z,4.50
2023-01-03T08:53:45.446Z,3.55
2023-01-03T08:56:13.616Z,3.90
2023-01-03T08:58:41.447Z,4.57
2023-01-03T09:01:11.519Z,2.97
2023-01-03T09:03:41.836Z,3.63
2023-01-03T09:06:09.837Z,3.60
2023-01-03T09:08:37.623Z,3.78
2023-01-03T09:11:06.352Z,3.75
2023-01-03T09:13:34.369Z,3.60
2023-01-03T09:16:02.912Z,4.07
2023-01-03T09:18:30.874Z,3.30
2023-01-03T09:21:00.124Z,3.78
2023-01-03T09:23:27.887Z,3.70
2023-01-03T09:25:55.737Z,3.10
2023-01-03T09:28:23.669Z,3.42
2023-01-03T09:30:51.522Z,3.28
2023-01-03T09:33:19.680Z,3.08
2023-01-03T09:35:47.422Z,4.07
2023-01-03T09:38:16.620Z,3.28
2023-01-03T09:40:47.160Z,2.97
2023-01-03T09:43:23.040Z,3.70
2023-01-03T09:45:55.190Z,2.90
2023-01-03T09:48:29.989Z,3.15
2023-01-03T09:51:18.478Z,3.38
2023-01-03T09:54:04.403Z,3.38
2023-01-03T09:56:50.906Z,3.38
2023-01-03T09:59:37.518Z,3.23
2023-01-03T10:02:44.247Z,4.22
2023-01-03T10:05:30.746Z,3.40
2023-01-03T10:08:18.375Z,3.63
2023-01-03T10:10:58.556Z,3.35
2023-01-03T10:13:41.671Z,3.30
2023-01-03T10:16:19.091Z,3.83
2023-01-03T10:19:04.696Z,3.42
2023-01-03T10:21:43.233Z,3.38
2023-01-03T10:24:19.223Z,3.53
2023-01-03T10:26:50.264Z,3.35
2023-01-03T10:29:20.214Z,3.33
2023-01-03T10:32:04.300Z,3.75
2023-01-03T10:34:32.154Z,3.28
2023-01-03T10:36:59.967Z,2.90
2023-01-03T10:39:32.289Z,2.58
2023-01-03T10:42:01.550Z,3.30
2023-01-03T10:44:31.572Z,3.00
2023-01-03T10:47:08.886Z,3.97
2023-01-03T10:49:37.186Z,3.50
2023-01-03T10:52:13.228Z,3.35
2023-01-03T10:54:50.075Z,3.17
2023-01-03T11:00:28.855Z,2.70
2023-01-03T11:03:02.491Z,3.03
2023-01-03T11:05:30.580Z,2.95
2023-01-03T11:08:01.674Z,2.53
2023-01-03T11:10:38.482Z,3.28
2023-01-03T11:15:55.416Z,3.13
2023-01-03T11:18:23.737Z,2.92
2023-01-03T11:20:56.953Z,3.20
2023-01-03T11:23:34.487Z,2.92
2023-01-03T11:26:13.022Z,2.95
2023-01-03T11:29:24.548Z,2.42
2023-01-03T11:31:58.380Z,3.15
2023-01-03T11:35:20.731Z,2.92
2023-01-03T11:37:41.093Z,2.70
2023-01-03T11:40:17.859Z,2.90
2023-01-03T11:42:59.902Z,2.70
2023-01-03T11:45:49.805Z,2.83
2023-01-03T11:48:35.469Z,3.83
2023-01-03T11:51:14.267Z,2.92
2023-01-03T11:53:54.356Z,2.97
2023-01-03T11:56:29.090Z,3.25
2023-01-03T11:59:29.091Z,3.38
2023-01-03T12:02:32.790Z,4.50
2023-01-03T12:05:13.617Z,3.40
2023-01-03T12:07:54.562Z,3.10
2023-01-03T12:10:29.362Z,3.60
2023-01-03T12:13:16.743Z,3.85
2023-01-03T12:18:26.214Z,3.75
2023-01-03T12:20:59.989Z,4.18
2023-01-03T12:23:38.700Z,4.15
2023-01-03T12:26:09.807Z,4.15
2023-01-03T12:28:48.548Z,3.83
2023-01-03T12:31:31.326Z,3.80
2023-01-03T12:34:12.235Z,2.95
2023-01-03T12:36:46.563Z,3.90
2023-01-03T12:39:39.060Z,4.15
2023-01-03T12:42:15.882Z,3.63
2023-01-03T12:47:29.882Z,3.35
2023-01-03T12:50:04.675Z,2.72
2023-01-03T12:52:35.378Z,3.00
2023-01-03T12:55:09.396Z,2.88
2023-01-03T12:57:55.183Z,2.92
2023-01-03T13:00:36.163Z,2.40
2023-01-03T13:03:08.913Z,2.45
2023-01-03T13:05:48.169Z,2.30
2023-01-03T13:08:24.208Z,2.10
2023-01-03T13:10:56.155Z,3.00
2023-01-03T13:13:24.151Z,2.42
2023-01-03T13:15:52.045Z,2.15
2023-01-03T13:18:32.970Z,2.10
2023-01-03T13:21:02.327Z,2.17
2023-01-03T13:23:46.592Z,1.90
2023-01-03T13:26:22.897Z,2.25
2023-01-03T13:28:51.555Z,2.40
2023-01-03T13:31:40.844Z,2.17
2023-01-03T13:34:39.474Z,1.67
2023-01-03T13:37:18.197Z,1.52
2023-01-03T13:39:58.335Z,2.15
2023-01-03T13:42:31.105Z,1.98
2023-01-03T13:45:35.600Z,2.10
2023-01-03T13:48:18.553Z,2.00
2023-01-03T13:51:10.876Z,2.15
2023-01-03T13:53:52.950Z,1.83
2023-01-03T13:56:24.100Z,1.80
2023-01-03T13:58:53.652Z,2.03
2023-01-03T14:01:33.300Z,2.00
2023-01-03T14:04:23.895Z,1.65
2023-01-03T14:07:25.423Z,1.70
2023-01-03T14:10:13.698Z,1.60
2023-01-03T14:13:15.726Z,2.15
2023-01-03T14:15:44.015Z,1.30
2023-01-03T14:18:20.921Z,2.17
2023-01-03T14:20:52.531Z,1.50
2023-01-03T14:26:16.087Z,1.65
2023-01-03T14:28:49.388Z,1.80
2023-01-03T14:31:20.618Z,1.73
2023-01-03T14:33:54.923Z,1.52
2023-01-03T14:36:22.979Z,1.67
2023-01-03T14:38:52.509Z,1.55
2023-01-03T14:41:29.572Z,2.17
2023-01-03T14:44:01.513Z,2.05
2023-01-03T14:46:30.979Z,1.27
2023-01-03T14:49:03.470Z,1.90
2023-01-03T14:51:34.499Z,1.70
2023-01-03T14:54:03.227Z,1.60
2023-01-03T14:56:33.361Z,1.65
2023-01-03T14:59:02.147Z,1.45
2023-01-03T15:01:30.522Z,2.00
2023-01-03T15:04:00.366Z,1.40
2023-01-03T15:06:30.978Z,2.10
2023-01-03T15:09:00.503Z,1.58
2023-01-03T15:11:35.274Z,1.35
2023-01-03T15:14:06.100Z,1.70
2023-01-03T15:16:37.070Z,1.98
2023-01-03T15:19:13.423Z,1.60
2023-01-03T15:21:42.728Z,1.92
2023-01-03T15:24:17.803Z,1.50
2023-01-03T15:26:49.131Z,1.63
2023-01-03T15:29:19.443Z,1.58
2023-01-03T15:31:49.903Z,1.90
2023-01-03T15:34:19.733Z,1.83
2023-01-03T15:36:50.541Z,1.75
2023-01-03T15:39:20.499Z,1.67
2023-01-03T15:44:56.321Z,1.98
2023-01-03T15:47:27.442Z,2.10
2023-01-03T15:50:00.849Z,1.70
2023-01-03T15:52:28.665Z,2.63
2023-01-03T15:54:56.632Z,3.08
2023-01-03T15:57:30.972Z,1.95
2023-01-03T16:00:02.975Z,1.83
2023-01-03T16:02:31.606Z,1.67
2023-01-03T16:04:59.643Z,1.50
2023-01-03T16:07:27.894Z,1.58
2023-01-03T16:09:55.737Z,1.88
2023-01-03T16:12:31.429Z,2.17
2023-01-03T16:14:59.413Z,1.88
2023-01-03T16:17:29.262Z,1.58
2023-01-03T16:19:59.561Z,2.30
2023-01-03T16:22:36.467Z,1.92
2023-01-03T16:25:06.555Z,1.67
2023-01-03T16:27:35.952Z,2.17
2023-01-03T16:30:03.768Z,2.00
2023-01-03T16:32:31.993Z,2.20
2023-01-03T16:35:02.214Z,2.00
2023-01-03T16:37:30.040Z,1.80
2023-01-03T16:39:58.381Z,1.90
2023-01-03T16:42:28.521Z,2.00
2023-01-03T16:44:58.099Z,2.25
2023-01-03T16:47:30.341Z,1.67
2023-01-03T16:50:01.896Z,2.22
2023-01-03T16:52:34.335Z,2.03
2023-01-03T16:55:05.276Z,1.90
2023-01-03T16:57:33.292Z,1.92
2023-01-03T17:00:02.729Z,2.17
2023-01-03T17:02:30.761Z,1.95
2023-01-03T17:04:58.597Z,1.73
2023-01-03T17:07:26.526Z,2.22
2023-01-03T17:09:54.332Z,1.95
2023-01-03T17:12:24.867Z,2.13
2023-01-03T17:14:53.262Z,1.77
2023-01-03T17:17:24.442Z,1.92
2023-01-03T17:20:07.770Z,1.88
2023-01-03T17:22:35.800Z,2.05
2023-01-03T17:25:03.605Z,2.38
2023-01-03T17:27:32.880Z,3.13
2023-01-03T17:30:05.012Z,2.40
2023-01-03T17:32:34.381Z,1.63
2023-01-03T17:35:03.194Z,2.13
2023-01-03T17:37:45.474Z,1.88
2023-01-03T17:40:27.648Z,1.80
2023-01-03T17:42:59.920Z,2.08
2023-01-03T17:45:45.520Z,1.42
2023-01-03T17:48:32.862Z,1.80
2023-01-03T17:53:30.640Z,1.65
2023-01-03T17:55:58.697Z,1.63
2023-01-03T17:58:34.711Z,1.65
2023-01-03T18:01:03.123Z,2.22
2023-01-03T18:03:33.044Z,2.25
2023-01-03T18:06:05.891Z,2.00
2023-01-03T18:08:34.223Z,2.60
2023-01-03T18:11:02.097Z,2.92
2023-01-03T18:13:33.662Z,1.90
2023-01-03T18:16:01.661Z,1.90
2023-01-03T18:18:30.221Z,2.28
2023-01-03T18:21:00.805Z,2.60
2023-01-03T18:23:31.704Z,2.22
2023-01-03T18:26:02.432Z,1.92
2023-01-03T18:28:30.371Z,2.05
2023-01-03T18:30:59.088Z,1.38
2023-01-03T18:33:27.095Z,2.08
2023-01-03T18:35:55.335Z,1.50
2023-01-03T18:38:30.634Z,1.90
2023-01-03T18:41:04.388Z,1.63
2023-01-03T18:43:33.283Z,1.65
2023-01-03T18:46:01.279Z,1.77
2023-01-03T18:48:29.281Z,1.42
2023-01-03T18:50:59.319Z,1.75
2023-01-03T18:53:32.052Z,1.52
2023-01-03T18:56:00.191Z,1.80
2023-01-03T18:58:33.062Z,1.98
2023-01-03T19:01:01.379Z,2.83
2023-01-03T19:03:31.193Z,1.65
2023-01-03T19:06:00.479Z,1.58
2023-01-03T19:08:33.535Z,1.80
2023-01-03T19:11:06.949Z,1.58
2023-01-03T19:13:50.305Z,2.38
2023-01-03T19:16:20.495Z,1.85
2023-01-03T19:18:49.150Z,1.90
2023-01-03T19:21:18.054Z,2.22
2023-01-03T19:23:51.550Z,2.00
2023-01-03T19:26:29.507Z,1.42
2023-01-03T19:29:01.506Z,1.92
2023-01-03T19:31:31.778Z,2.00
2023-01-03T19:33:59.771Z,1.90
2023-01-03T19:36:27.616Z,1.67
2023-01-03T19:38:56.772Z,1.60
2023-01-03T19:41:24.522Z,1.88
2023-01-03T19:43:52.297Z,1.80
2023-01-03T19:46:20.324Z,2.00
2023-01-03T19:48:48.155Z,1.67
2023-01-03T19:51:15.989Z,2.63
2023-01-03T19:53:43.822Z,1.52
2023-01-03T19:56:23.959Z,1.77
2023-01-03T19:58:54.495Z,2.03
2023-01-03T20:01:25.821Z,2.25
2023-01-03T20:03:53.941Z,1.45
2023-01-03T20:06:22.009Z,1.77
2023-01-03T20:08:49.908Z,1.65
2023-01-03T20:11:21.134Z,1.77
2023-01-03T20:13:49.296Z,1.90
2023-01-03T20:16:17.651Z,2.03
2023-01-03T20:18:45.603Z,1.52
2023-01-03T20:21:22.568Z,1.80
2023-01-03T20:23:54.131Z,2.17
2023-01-03T20:26:26.655Z,1.77
2023-01-03T20:28:56.064Z,2.03
2023-01-03T20:31:24.157Z,1.90
2023-01-03T20:33:52.255Z,1.30
2023-01-03T20:36:23.888Z,2.10
2023-01-03T20:38:55.921Z,1.83
2023-01-03T20:41:36.380Z,1.55
2023-01-03T20:44:04.726Z,1.67
2023-01-03T20:46:32.594Z,1.95
2023-01-03T20:49:03.352Z,1.42
2023-01-03T20:51:32.768Z,1.67
2023-01-03T20:54:00.645Z,1.60
2023-01-03T20:56:32.866Z,1.50
2023-01-03T20:59:00.740Z,2.03
2023-01-03T21:01:28.692Z,1.30
2023-01-03T21:03:56.770Z,1.70
2023-01-03T21:06:29.502Z,1.40
2023-01-03T21:08:57.953Z,1.65
2023-01-03T21:11:28.036Z,1.88
2023-01-03T21:13:58.946Z,1.67
2023-01-03T21:16:33.262Z,1.27
2023-01-03T21:19:07.516Z,1.40
2023-01-03T21:21:36.055Z,1.80
2023-01-03T21:24:04.709Z,2.30
2023-01-03T21:26:32.478Z,1.45
2023-01-03T21:29:01.695Z,1.63
2023-01-03T21:31:29.568Z,1.40
2023-01-03T21:33:57.690Z,2.25
2023-01-03T21:36:28.760Z,2.05
2023-01-03T21:38:56.863Z,2.13
2023-01-03T21:41:26.763Z,2.63
2023-01-03T21:43:56.636Z,1.55
2023-01-03T21:46:26.831Z,1.70
2023-01-03T21:48:55.387Z,1.80
2023-01-03T21:51:33.462Z,1.90
2023-01-03T21:54:05.673Z,1.77
2023-01-03T21:56:33.501Z,1.55
2023-01-03T21:59:01.265Z,2.03
2023-01-03T22:01:50.554Z,1.65
2023-01-03T22:04:20.205Z,1.80
2023-01-03T22:06:48.032Z,2.85
2023-01-03T22:09:29.811Z,1.75
2023-01-03T22:11:57.646Z,1.88
2023-01-03T22:14:25.516Z,2.22
2023-01-03T22:16:54.791Z,1.70
2023-01-03T22:19:22.641Z,1.70
2023-01-03T22:21:50.424Z,1.70
2023-01-03T22:24:18.208Z,1.65
2023-01-03T22:26:46.204Z,2.00
2023-01-03T22:29:13.991Z,1.70
2023-01-03T22:31:41.884Z,1.77
2023-01-03T22:34:11.158Z,1.75
2023-01-03T22:36:38.982Z,1.48
2023-01-03T22:39:06.858Z,1.90
2023-01-03T22:41:34.733Z,1.40
2023-01-03T22:44:02.539Z,1.80
2023-01-03T22:46:30.478Z,1.88
2023-01-03T22:48:58.386Z,1.63
2023-01-03T22:51:27.600Z,1.52
2023-01-03T22:53:55.396Z,1.80
2023-01-03T22:56:23.198Z,1.77
2023-01-03T22:58:51.087Z,1.88
2023-01-03T23:01:22.715Z,1.80
2023-01-03T23:03:50.751Z,2.42
2023-01-03T23:06:21.021Z,2.13
2023-01-03T23:08:51.430Z,1.67
2023-01-03T23:11:39.378Z,1.50
2023-01-03T23:14:09.060Z,1.65
2023-01-03T23:16:36.946Z,1.75
2023-01-03T23:19:06.274Z,1.50
2023-01-03T23:21:34.438Z,1.63
2023-01-03T23:24:04.409Z,1.88
2023-01-03T23:26:32.315Z,1.73
2023-01-03T23:29:01.354Z,1.55
2023-01-03T23:31:29.510Z,1.98
2023-01-03T23:33:58.135Z,1.77
2023-01-03T23:36:26.736Z,1.60
2023-01-03T23:38:54.882Z,1.80
2023-01-03T23:41:24.059Z,1.30
2023-01-03T23:43:52.721Z,2.00
2023-01-03T23:46:22.476Z,1.40
2023-01-03T23:48:54.572Z,1.92
2023-01-03T23:51:22.431Z,1.70
2023-01-03T23:53:50.201Z,2.20
2023-01-03T23:56:19.609Z,2.25
2023-01-03T23:58:48.944Z,1.92
